• Join FlightAware (Why Join?)
  • Login
  • US Flag 
10:04AM EDT


 

Airport Tracker/Info


-or-


 

Live Flight TrackerFlight Track Log ✈ BMBR609 ✈ 28-Feb-2013 ✈ YPJT / JAD - YPJT / JAD

Flight Track Log - Related Links

Times and Time Zones

All times are in EST time to prevent confusion due to time zone crossing. See the BMBR609 flight status page for this flight to view local times or setup timezone preferences in your user account.

Time Position Orientation Groundspeed Altitude Reporting Facility
EST Latitude Longitude Course Direction KTS MPH feet Rate Location/Type
12:19AM -32.0447 115.7435 35° Northeast 148 170 1,400  Level Aus ATC (RADAR)
12:19AM -32.0258 115.7590 35° Northeast 138 159 1,400  Level Aus ATC (RADAR)
12:19AM -32.0177 115.7665 38° Northeast 142 163 1,400 60 Level Aus ATC (RADAR)
12:20AM -31.9967 115.7861 38° Northeast 143 165 1,500 120 Climbing Aus ATC (RADAR)
12:21AM -31.9732 115.8083 39° Northeast 142 163 1,600 -180 Climbing Aus ATC (RADAR)
12:21AM -31.9550 115.8257 39° Northeast 144 166 1,300 -180 Descending Aus ATC (RADAR)
12:22AM -31.9276 115.8538 41° Northeast 141 162 1,400 60 Climbing Aus ATC (RADAR)
12:23AM -31.9195 115.8614 39° Northeast 144 166 1,400 120 Level Aus ATC (RADAR)
12:24AM -31.8782 115.8995 38° Northeast 145 167 1,600 60 Climbing Aus ATC (RADAR)
12:24AM -31.8707 115.9077 43° Northeast 145 167 1,500  Descending Aus ATC (RADAR)
12:25AM -31.8494 115.9285 40° Northeast 146 168 1,600 -120 Climbing Aus ATC (RADAR)
12:26AM -31.8237 115.9553 41° Northeast 146 168 1,400 -120 Descending Aus ATC (RADAR)
12:26AM -31.8041 115.9759 42° Northeast 140 161 1,500 -180 Climbing Aus ATC (RADAR)
12:27AM -31.7731 116.0105 43° Northeast 142 163 1,100 -240 Descending Aus ATC (RADAR)
12:28AM -31.7631 116.0248 51° Northeast 132 152 1,200 240 Climbing Aus ATC (RADAR)
12:29AM -31.7441 116.0744 66° East 128 147 1,500 120 Climbing Aus ATC (RADAR)
12:29AM -31.7382 116.0830 51° Northeast 130 150 1,400 -120 Descending Aus ATC (RADAR)
12:30AM -31.7150 116.0991 31° Northeast 142 163 1,400 -120 Level Aus ATC (RADAR)
12:31AM -31.6884 116.0857 337° Northwest 143 165 1,300 -120 Descending Aus ATC (RADAR)
12:31AM -31.6977 116.0621 245° Southwest 138 159 1,300 -240 Level Aus ATC (RADAR)
12:32AM -31.7116 116.0882 122° Southeast 113 130 1,000 -120 Descending Aus ATC (RADAR)
12:33AM -31.6972 116.0871 356° North 114 131 1,200 120 Climbing Aus ATC (RADAR)
12:34AM -31.7165 116.0456 241° Southwest 146 168 1,200 -60 Level Aus ATC (RADAR)
12:34AM -31.7359 116.0576 152° Southeast 141 162 1,100 -120 Descending Aus ATC (RADAR)
12:35AM -31.7375 116.0683 100° East 134 154 1,100 60 Level Aus ATC (RADAR)
12:35AM -31.7257 116.0931 61° Northeast 133 153 1,200 -420 Climbing Aus ATC (RADAR)
12:36AM -31.7067 116.0673 311° West 155 178 500  Descending Aus ATC (RADAR)
12:37AM -31.7148 116.0467 245° Southwest 144 166 1,200 300 Climbing Aus ATC (RADAR)
12:38AM -31.6982 116.0322 323° Northwest 133 153 1,000 -240 Descending Aus ATC (RADAR)
12:39AM -31.6548 116.0325 360° North 132 152 800 -240 Descending Aus ATC (RADAR)
12:39AM -31.6447 116.0167 307° West 145 167 600 -540 Descending Aus ATC (RADAR)
12:40AM -31.6730 116.0150 183° South 97 112 100 -360 Descending Aus ATC (RADAR)
12:41AM -31.6791 116.0165 168° South 20 23 100  Level Aus ATC (RADAR)
12:41AM -31.6795 116.0168 147° Southeast 10 12 100  Level Aus ATC (RADAR)
12:43AM -31.7095 116.0071 319° Northwest  Level Estimated
12:50AM -31.8919 115.9480 319° Northwest  Level Estimated